sensor_id;sensor_type;location;lat;lon;timestamp;temperature;humidity
5304;DHT22;2674;49.722;10.892;2022-10-22T00:00:10;12.60;99.90
5304;DHT22;2674;49.722;10.892;2022-10-22T00:02:36;12.60;99.90
5304;DHT22;2674;49.722;10.892;2022-10-22T00:05:03;12.60;99.90
5304;DHT22;2674;49.722;10.892;2022-10-22T00:07:29;12.70;99.90
5304;DHT22;2674;49.722;10.892;2022-10-22T00:09:55;12.70;99.90
5304;DHT22;2674;49.722;10.892;2022-10-22T00:12:21;12.70;99.90
5304;DHT22;2674;49.722;10.892;2022-10-22T00:14:47;12.70;99.90
5304;DHT22;2674;49.722;10.892;2022-10-22T00:17:14;12.70;99.90
5304;DHT22;2674;49.722;10.892;2022-10-22T00:19:40;12.70;99.90
5304;DHT22;2674;49.722;10.892;2022-10-22T00:22:06;12.70;99.90
5304;DHT22;2674;49.722;10.892;2022-10-22T00:24:33;12.80;99.90
5304;DHT22;2674;49.722;10.892;2022-10-22T00:27:00;12.80;99.90
5304;DHT22;2674;49.722;10.892;2022-10-22T00:29:25;12.80;99.90
5304;DHT22;2674;49.722;10.892;2022-10-22T00:31:51;12.80;99.90
5304;DHT22;2674;49.722;10.892;2022-10-22T00:34:19;12.80;99.90
5304;DHT22;2674;49.722;10.892;2022-10-22T00:36:46;12.80;99.90
5304;DHT22;2674;49.722;10.892;2022-10-22T00:39:14;12.80;99.90
5304;DHT22;2674;49.722;10.892;2022-10-22T00:41:42;12.80;99.90
5304;DHT22;2674;49.722;10.892;2022-10-22T00:47:13;12.80;99.90
5304;DHT22;2674;49.722;10.892;2022-10-22T00:49:39;12.80;99.90
5304;DHT22;2674;49.722;10.892;2022-10-22T00:52:05;12.80;99.90
5304;DHT22;2674;49.722;10.892;2022-10-22T00:54:32;12.80;99.90
5304;DHT22;2674;49.722;10.892;2022-10-22T00:56:59;12.80;99.90
5304;DHT22;2674;49.722;10.892;2022-10-22T00:59:26;12.80;99.90
5304;DHT22;2674;49.722;10.892;2022-10-22T01:01:53;12.80;99.90
5304;DHT22;2674;49.722;10.892;2022-10-22T01:04:19;12.80;99.90
5304;DHT22;2674;49.722;10.892;2022-10-22T01:06:46;12.80;99.90
5304;DHT22;2674;49.722;10.892;2022-10-22T01:18:09;12.70;99.90
5304;DHT22;2674;49.722;10.892;2022-10-22T01:26:52;12.70;99.90
5304;DHT22;2674;49.722;10.892;2022-10-22T01:32:09;12.80;99.90
5304;DHT22;2674;49.722;10.892;2022-10-22T01:34:41;12.80;99.90
5304;DHT22;2674;49.722;10.892;2022-10-22T01:37:11;12.80;99.90
5304;DHT22;2674;49.722;10.892;2022-10-22T01:39:39;12.70;99.90
5304;DHT22;2674;49.722;10.892;2022-10-22T01:42:06;12.80;99.90
5304;DHT22;2674;49.722;10.892;2022-10-22T01:44:34;12.70;99.90
5304;DHT22;2674;49.722;10.892;2022-10-22T01:59:03;12.80;99.90
5304;DHT22;2674;49.722;10.892;2022-10-22T02:01:47;12.80;99.90
5304;DHT22;2674;49.722;10.892;2022-10-22T02:04:40;12.80;99.90
5304;DHT22;2674;49.722;10.892;2022-10-22T02:07:10;12.80;99.90
5304;DHT22;2674;49.722;10.892;2022-10-22T02:09:39;12.80;99.90
5304;DHT22;2674;49.722;10.892;2022-10-22T02:12:07;12.80;99.90
5304;DHT22;2674;49.722;10.892;2022-10-22T02:14:36;12.80;99.90
5304;DHT22;2674;49.722;10.892;2022-10-22T02:17:05;12.80;99.90
5304;DHT22;2674;49.722;10.892;2022-10-22T02:19:42;12.80;99.90
5304;DHT22;2674;49.722;10.892;2022-10-22T02:22:09;12.90;99.90
5304;DHT22;2674;49.722;10.892;2022-10-22T02:24:35;12.80;99.90
5304;DHT22;2674;49.722;10.892;2022-10-22T02:29:43;12.80;99.90
5304;DHT22;2674;49.722;10.892;2022-10-22T02:32:17;12.80;99.90
5304;DHT22;2674;49.722;10.892;2022-10-22T02:34:45;12.80;99.90
5304;DHT22;2674;49.722;10.892;2022-10-22T02:37:13;12.80;99.90
5304;DHT22;2674;49.722;10.892;2022-10-22T02:39:40;12.80;99.90
5304;DHT22;2674;49.722;10.892;2022-10-22T02:42:06;12.80;99.90
5304;DHT22;2674;49.722;10.892;2022-10-22T02:44:33;12.80;99.90
5304;DHT22;2674;49.722;10.892;2022-10-22T02:46:59;12.80;99.90
5304;DHT22;2674;49.722;10.892;2022-10-22T02:49:25;12.80;99.90
5304;DHT22;2674;49.722;10.892;2022-10-22T02:51:50;12.80;99.90
5304;DHT22;2674;49.722;10.892;2022-10-22T02:54:16;12.80;99.90
5304;DHT22;2674;49.722;10.892;2022-10-22T02:56:42;12.80;99.90
5304;DHT22;2674;49.722;10.892;2022-10-22T02:59:08;12.80;99.90
5304;DHT22;2674;49.722;10.892;2022-10-22T03:01:34;12.80;99.90
5304;DHT22;2674;49.722;10.892;2022-10-22T03:04:00;12.80;99.90
5304;DHT22;2674;49.722;10.892;2022-10-22T03:06:26;12.80;99.90
5304;DHT22;2674;49.722;10.892;2022-10-22T03:08:51;12.80;99.90
5304;DHT22;2674;49.722;10.892;2022-10-22T03:11:17;12.80;99.90
5304;DHT22;2674;49.722;10.892;2022-10-22T03:13:43;12.80;99.90
5304;DHT22;2674;49.722;10.892;2022-10-22T03:16:09;12.80;99.90
5304;DHT22;2674;49.722;10.892;2022-10-22T03:18:35;12.80;99.90
5304;DHT22;2674;49.722;10.892;2022-10-22T03:21:12;12.80;99.90
5304;DHT22;2674;49.722;10.892;2022-10-22T03:23:44;12.80;99.90
5304;DHT22;2674;49.722;10.892;2022-10-22T03:26:11;12.80;99.90
5304;DHT22;2674;49.722;10.892;2022-10-22T03:28:39;12.80;99.90
5304;DHT22;2674;49.722;10.892;2022-10-22T03:31:06;12.70;99.90
5304;DHT22;2674;49.722;10.892;2022-10-22T03:33:32;12.70;99.90
5304;DHT22;2674;49.722;10.892;2022-10-22T03:35:58;12.70;99.90
5304;DHT22;2674;49.722;10.892;2022-10-22T03:38:25;12.70;99.90
5304;DHT22;2674;49.722;10.892;2022-10-22T03:40:51;12.60;99.90
5304;DHT22;2674;49.722;10.892;2022-10-22T03:43:17;12.60;99.90
5304;DHT22;2674;49.722;10.892;2022-10-22T03:45:43;12.60;99.90
5304;DHT22;2674;49.722;10.892;2022-10-22T03:48:09;12.70;99.90
5304;DHT22;2674;49.722;10.892;2022-10-22T03:50:35;12.60;99.90
5304;DHT22;2674;49.722;10.892;2022-10-22T03:53:00;12.60;99.90
5304;DHT22;2674;49.722;10.892;2022-10-22T03:55:26;12.60;99.90
5304;DHT22;2674;49.722;10.892;2022-10-22T03:57:53;12.60;99.90
5304;DHT22;2674;49.722;10.892;2022-10-22T04:00:19;12.60;99.90
5304;DHT22;2674;49.722;10.892;2022-10-22T04:02:44;12.60;99.90
5304;DHT22;2674;49.722;10.892;2022-10-22T04:05:10;12.60;99.90
5304;DHT22;2674;49.722;10.892;2022-10-22T04:07:36;12.60;99.90
5304;DHT22;2674;49.722;10.892;2022-10-22T04:10:02;12.60;99.90
5304;DHT22;2674;49.722;10.892;2022-10-22T04:12:28;12.60;99.90
5304;DHT22;2674;49.722;10.892;2022-10-22T04:14:54;12.50;99.90
5304;DHT22;2674;49.722;10.892;2022-10-22T04:17:20;12.50;99.90
5304;DHT22;2674;49.722;10.892;2022-10-22T04:19:46;12.50;99.90
5304;DHT22;2674;49.722;10.892;2022-10-22T04:22:12;12.50;99.90
5304;DHT22;2674;49.722;10.892;2022-10-22T04:24:38;12.50;99.90
5304;DHT22;2674;49.722;10.892;2022-10-22T04:27:03;12.50;99.90
5304;DHT22;2674;49.722;10.892;2022-10-22T04:29:29;12.40;99.90
5304;DHT22;2674;49.722;10.892;2022-10-22T04:31:55;12.40;99.90
5304;DHT22;2674;49.722;10.892;2022-10-22T04:34:21;12.40;99.90
5304;DHT22;2674;49.722;10.892;2022-10-22T04:36:47;12.40;99.90
5304;DHT22;2674;49.722;10.892;2022-10-22T04:39:13;12.50;99.90
5304;DHT22;2674;49.722;10.892;2022-10-22T04:41:39;12.50;99.90
5304;DHT22;2674;49.722;10.892;2022-10-22T04:44:06;12.50;99.90
5304;DHT22;2674;49.722;10.892;2022-10-22T04:46:34;12.50;99.90
5304;DHT22;2674;49.722;10.892;2022-10-22T04:49:00;12.40;99.90
5304;DHT22;2674;49.722;10.892;2022-10-22T04:51:28;12.40;99.90
5304;DHT22;2674;49.722;10.892;2022-10-22T04:53:54;12.40;99.90
5304;DHT22;2674;49.722;10.892;2022-10-22T04:56:23;12.40;99.90
5304;DHT22;2674;49.722;10.892;2022-10-22T04:58:51;12.40;99.90
5304;DHT22;2674;49.722;10.892;2022-10-22T05:01:20;12.40;99.90
5304;DHT22;2674;49.722;10.892;2022-10-22T05:03:48;12.40;99.90
5304;DHT22;2674;49.722;10.892;2022-10-22T05:06:14;12.30;99.90
5304;DHT22;2674;49.722;10.892;2022-10-22T05:08:41;12.30;99.90
5304;DHT22;2674;49.722;10.892;2022-10-22T05:11:16;12.30;99.90
5304;DHT22;2674;49.722;10.892;2022-10-22T05:13:43;12.30;99.90
5304;DHT22;2674;49.722;10.892;2022-10-22T05:16:09;12.20;99.90
5304;DHT22;2674;49.722;10.892;2022-10-22T05:18:36;12.20;99.90
5304;DHT22;2674;49.722;10.892;2022-10-22T05:21:03;12.10;99.90
5304;DHT22;2674;49.722;10.892;2022-10-22T05:23:30;12.10;99.90
5304;DHT22;2674;49.722;10.892;2022-10-22T05:25:56;12.10;99.90
5304;DHT22;2674;49.722;10.892;2022-10-22T05:28:22;12.10;99.90
5304;DHT22;2674;49.722;10.892;2022-10-22T05:30:55;12.10;99.90
5304;DHT22;2674;49.722;10.892;2022-10-22T05:33:21;12.00;99.90
5304;DHT22;2674;49.722;10.892;2022-10-22T05:35:49;12.00;99.90
5304;DHT22;2674;49.722;10.892;2022-10-22T05:38:15;12.00;99.90
5304;DHT22;2674;49.722;10.892;2022-10-22T05:40:41;12.00;99.90
5304;DHT22;2674;49.722;10.892;2022-10-22T05:43:07;11.90;99.90
5304;DHT22;2674;49.722;10.892;2022-10-22T05:45:41;11.90;99.90
5304;DHT22;2674;49.722;10.892;2022-10-22T05:48:07;11.90;99.90
5304;DHT22;2674;49.722;10.892;2022-10-22T05:50:37;11.80;99.90
5304;DHT22;2674;49.722;10.892;2022-10-22T05:53:06;11.80;99.90
5304;DHT22;2674;49.722;10.892;2022-10-22T05:55:36;11.90;99.90
5304;DHT22;2674;49.722;10.892;2022-10-22T05:58:05;11.90;99.90
5304;DHT22;2674;49.722;10.892;2022-10-22T06:00:31;11.90;99.90
5304;DHT22;2674;49.722;10.892;2022-10-22T06:02:59;11.90;99.90
5304;DHT22;2674;49.722;10.892;2022-10-22T06:05:27;11.80;99.90
5304;DHT22;2674;49.722;10.892;2022-10-22T06:07:54;11.90;99.90
5304;DHT22;2674;49.722;10.892;2022-10-22T06:10:21;11.90;99.90
5304;DHT22;2674;49.722;10.892;2022-10-22T06:12:47;11.90;99.90
5304;DHT22;2674;49.722;10.892;2022-10-22T06:15:16;11.90;99.90
5304;DHT22;2674;49.722;10.892;2022-10-22T06:17:46;11.90;99.90
5304;DHT22;2674;49.722;10.892;2022-10-22T06:20:13;11.90;99.90
5304;DHT22;2674;49.722;10.892;2022-10-22T06:22:39;11.90;99.90
5304;DHT22;2674;49.722;10.892;2022-10-22T06:25:08;11.90;99.90
5304;DHT22;2674;49.722;10.892;2022-10-22T06:27:35;11.80;99.90
5304;DHT22;2674;49.722;10.892;2022-10-22T06:30:01;11.80;99.90
5304;DHT22;2674;49.722;10.892;2022-10-22T06:32:33;11.90;99.90
5304;DHT22;2674;49.722;10.892;2022-10-22T06:35:02;11.90;99.90
5304;DHT22;2674;49.722;10.892;2022-10-22T06:37:29;11.90;99.90
5304;DHT22;2674;49.722;10.892;2022-10-22T06:39:55;11.90;99.90
5304;DHT22;2674;49.722;10.892;2022-10-22T06:42:32;11.90;99.90
5304;DHT22;2674;49.722;10.892;2022-10-22T06:44:59;11.90;99.90
5304;DHT22;2674;49.722;10.892;2022-10-22T06:47:25;11.90;99.90
5304;DHT22;2674;49.722;10.892;2022-10-22T06:49:50;11.90;99.90
5304;DHT22;2674;49.722;10.892;2022-10-22T06:52:16;11.90;99.90
5304;DHT22;2674;49.722;10.892;2022-10-22T06:54:42;11.90;99.90
5304;DHT22;2674;49.722;10.892;2022-10-22T06:57:08;11.90;99.90
5304;DHT22;2674;49.722;10.892;2022-10-22T06:59:34;11.90;99.90
5304;DHT22;2674;49.722;10.892;2022-10-22T07:02:00;11.90;99.90
5304;DHT22;2674;49.722;10.892;2022-10-22T07:04:27;11.90;99.90
5304;DHT22;2674;49.722;10.892;2022-10-22T07:06:56;12.00;99.90
5304;DHT22;2674;49.722;10.892;2022-10-22T07:09:22;12.00;99.90
5304;DHT22;2674;49.722;10.892;2022-10-22T07:11:48;12.00;99.90
5304;DHT22;2674;49.722;10.892;2022-10-22T07:14:17;12.00;99.90
5304;DHT22;2674;49.722;10.892;2022-10-22T07:16:46;12.00;99.90
5304;DHT22;2674;49.722;10.892;2022-10-22T07:19:13;12.10;99.90
5304;DHT22;2674;49.722;10.892;2022-10-22T07:21:43;12.10;99.90
5304;DHT22;2674;49.722;10.892;2022-10-22T07:24:09;12.20;99.90
5304;DHT22;2674;49.722;10.892;2022-10-22T07:26:35;12.00;99.90
5304;DHT22;2674;49.722;10.892;2022-10-22T07:29:02;12.40;99.90
5304;DHT22;2674;49.722;10.892;2022-10-22T07:31:28;12.50;99.90
5304;DHT22;2674;49.722;10.892;2022-10-22T07:33:55;12.70;99.90
5304;DHT22;2674;49.722;10.892;2022-10-22T07:36:21;12.80;99.90
5304;DHT22;2674;49.722;10.892;2022-10-22T07:38:52;12.90;99.90
5304;DHT22;2674;49.722;10.892;2022-10-22T07:41:18;12.90;99.90
5304;DHT22;2674;49.722;10.892;2022-10-22T07:43:44;12.90;99.90
5304;DHT22;2674;49.722;10.892;2022-10-22T07:46:10;12.90;99.90
5304;DHT22;2674;49.722;10.892;2022-10-22T07:48:37;12.90;99.90
5304;DHT22;2674;49.722;10.892;2022-10-22T07:51:03;12.90;99.90
5304;DHT22;2674;49.722;10.892;2022-10-22T07:53:30;12.90;99.90
5304;DHT22;2674;49.722;10.892;2022-10-22T07:55:56;12.90;99.90
5304;DHT22;2674;49.722;10.892;2022-10-22T07:58:23;12.90;99.90
5304;DHT22;2674;49.722;10.892;2022-10-22T08:00:49;12.90;99.90
5304;DHT22;2674;49.722;10.892;2022-10-22T08:03:17;13.00;99.90
5304;DHT22;2674;49.722;10.892;2022-10-22T08:05:43;13.00;99.90
5304;DHT22;2674;49.722;10.892;2022-10-22T08:08:11;13.10;99.90
5304;DHT22;2674;49.722;10.892;2022-10-22T08:10:37;13.10;99.90
5304;DHT22;2674;49.722;10.892;2022-10-22T08:13:04;13.10;99.90
5304;DHT22;2674;49.722;10.892;2022-10-22T08:15:30;13.10;99.90
5304;DHT22;2674;49.722;10.892;2022-10-22T08:17:56;13.10;99.90
5304;DHT22;2674;49.722;10.892;2022-10-22T08:20:22;13.10;99.90
5304;DHT22;2674;49.722;10.892;2022-10-22T08:22:53;13.10;99.90
5304;DHT22;2674;49.722;10.892;2022-10-22T08:25:20;13.20;99.90
5304;DHT22;2674;49.722;10.892;2022-10-22T08:27:46;13.30;99.90
5304;DHT22;2674;49.722;10.892;2022-10-22T08:30:12;13.30;99.90
5304;DHT22;2674;49.722;10.892;2022-10-22T08:32:39;13.40;99.90
5304;DHT22;2674;49.722;10.892;2022-10-22T08:35:05;13.50;99.90
5304;DHT22;2674;49.722;10.892;2022-10-22T08:37:31;13.50;99.90
5304;DHT22;2674;49.722;10.892;2022-10-22T08:39:57;13.60;99.90
5304;DHT22;2674;49.722;10.892;2022-10-22T08:50:29;13.70;99.90
5304;DHT22;2674;49.722;10.892;2022-10-22T08:53:01;13.80;99.90
5304;DHT22;2674;49.722;10.892;2022-10-22T08:55:29;13.80;99.90
5304;DHT22;2674;49.722;10.892;2022-10-22T09:01:13;13.90;99.90
5304;DHT22;2674;49.722;10.892;2022-10-22T09:03:54;13.90;99.90
5304;DHT22;2674;49.722;10.892;2022-10-22T09:06:27;14.00;99.90
5304;DHT22;2674;49.722;10.892;2022-10-22T09:08:56;14.00;99.90
5304;DHT22;2674;49.722;10.892;2022-10-22T09:11:27;14.00;99.90
5304;DHT22;2674;49.722;10.892;2022-10-22T09:13:55;14.10;99.90
5304;DHT22;2674;49.722;10.892;2022-10-22T09:22:13;14.40;99.90
5304;DHT22;2674;49.722;10.892;2022-10-22T09:24:51;14.60;99.90
5304;DHT22;2674;49.722;10.892;2022-10-22T09:27:24;14.70;99.90
5304;DHT22;2674;49.722;10.892;2022-10-22T09:29:50;14.70;99.90
5304;DHT22;2674;49.722;10.892;2022-10-22T09:32:17;14.80;99.90
5304;DHT22;2674;49.722;10.892;2022-10-22T09:34:44;14.90;99.90
5304;DHT22;2674;49.722;10.892;2022-10-22T09:37:10;14.90;99.90
5304;DHT22;2674;49.722;10.892;2022-10-22T09:39:43;14.90;99.90
5304;DHT22;2674;49.722;10.892;2022-10-22T09:42:14;15.00;99.90
5304;DHT22;2674;49.722;10.892;2022-10-22T09:44:40;15.00;99.90
5304;DHT22;2674;49.722;10.892;2022-10-22T09:52:41;15.10;99.90
5304;DHT22;2674;49.722;10.892;2022-10-22T09:55:17;15.10;99.90
5304;DHT22;2674;49.722;10.892;2022-10-22T09:57:43;15.20;99.90
5304;DHT22;2674;49.722;10.892;2022-10-22T10:00:18;15.20;99.90
5304;DHT22;2674;49.722;10.892;2022-10-22T10:02:45;15.30;99.90
5304;DHT22;2674;49.722;10.892;2022-10-22T10:05:26;15.30;99.90
5304;DHT22;2674;49.722;10.892;2022-10-22T10:07:52;15.40;99.90
5304;DHT22;2674;49.722;10.892;2022-10-22T10:11:05;15.40;99.90
5304;DHT22;2674;49.722;10.892;2022-10-22T10:13:53;15.50;99.90
5304;DHT22;2674;49.722;10.892;2022-10-22T10:28:02;15.70;99.90
5304;DHT22;2674;49.722;10.892;2022-10-22T10:30:30;15.80;99.90
5304;DHT22;2674;49.722;10.892;2022-10-22T10:33:10;15.90;99.90
5304;DHT22;2674;49.722;10.892;2022-10-22T10:36:12;16.00;99.90
5304;DHT22;2674;49.722;10.892;2022-10-22T10:44:38;16.30;99.90
5304;DHT22;2674;49.722;10.892;2022-10-22T10:47:15;16.40;99.90
5304;DHT22;2674;49.722;10.892;2022-10-22T10:49:45;16.50;99.90
5304;DHT22;2674;49.722;10.892;2022-10-22T10:52:35;16.60;99.90
5304;DHT22;2674;49.722;10.892;2022-10-22T11:00:19;16.70;99.90
5304;DHT22;2674;49.722;10.892;2022-10-22T11:05:53;16.90;99.90
5304;DHT22;2674;49.722;10.892;2022-10-22T11:14:12;17.40;99.90
5304;DHT22;2674;49.722;10.892;2022-10-22T11:16:56;17.40;99.90
5304;DHT22;2674;49.722;10.892;2022-10-22T11:22:17;17.30;99.90
5304;DHT22;2674;49.722;10.892;2022-10-22T11:25:45;17.20;99.90
5304;DHT22;2674;49.722;10.892;2022-10-22T11:28:17;17.00;99.90
5304;DHT22;2674;49.722;10.892;2022-10-22T11:30:43;16.90;99.90
5304;DHT22;2674;49.722;10.892;2022-10-22T11:33:13;16.80;99.90
5304;DHT22;2674;49.722;10.892;2022-10-22T11:35:44;16.70;99.90
5304;DHT22;2674;49.722;10.892;2022-10-22T11:38:22;16.60;99.90
5304;DHT22;2674;49.722;10.892;2022-10-22T11:40:58;16.60;99.90
5304;DHT22;2674;49.722;10.892;2022-10-22T11:43:31;16.50;99.90
5304;DHT22;2674;49.722;10.892;2022-10-22T11:51:39;16.40;99.90
5304;DHT22;2674;49.722;10.892;2022-10-22T11:54:42;16.40;99.90
5304;DHT22;2674;49.722;10.892;2022-10-22T11:59:57;16.50;99.90
5304;DHT22;2674;49.722;10.892;2022-10-22T12:04:55;16.40;99.90
5304;DHT22;2674;49.722;10.892;2022-10-22T12:08:00;16.40;99.90
5304;DHT22;2674;49.722;10.892;2022-10-22T12:10:33;16.30;99.90
5304;DHT22;2674;49.722;10.892;2022-10-22T12:13:25;16.30;99.90
5304;DHT22;2674;49.722;10.892;2022-10-22T12:15:54;16.30;99.90
5304;DHT22;2674;49.722;10.892;2022-10-22T12:18:25;16.30;99.90
5304;DHT22;2674;49.722;10.892;2022-10-22T12:23:33;16.30;99.90
5304;DHT22;2674;49.722;10.892;2022-10-22T12:25:59;16.30;99.90
5304;DHT22;2674;49.722;10.892;2022-10-22T12:28:26;16.40;99.90
5304;DHT22;2674;49.722;10.892;2022-10-22T12:30:52;16.50;99.90
5304;DHT22;2674;49.722;10.892;2022-10-22T12:33:21;16.70;99.90
5304;DHT22;2674;49.722;10.892;2022-10-22T12:35:48;17.00;99.90
5304;DHT22;2674;49.722;10.892;2022-10-22T12:38:20;17.20;99.90
5304;DHT22;2674;49.722;10.892;2022-10-22T12:40:47;17.40;99.90
5304;DHT22;2674;49.722;10.892;2022-10-22T12:43:26;17.50;99.90
5304;DHT22;2674;49.722;10.892;2022-10-22T12:45:52;17.60;99.90
5304;DHT22;2674;49.722;10.892;2022-10-22T12:48:24;17.70;99.90
5304;DHT22;2674;49.722;10.892;2022-10-22T12:50:53;17.70;99.90
5304;DHT22;2674;49.722;10.892;2022-10-22T12:55:51;17.80;99.90
5304;DHT22;2674;49.722;10.892;2022-10-22T12:58:20;17.80;99.90
5304;DHT22;2674;49.722;10.892;2022-10-22T13:00:56;17.90;99.90
5304;DHT22;2674;49.722;10.892;2022-10-22T13:03:35;18.00;99.90
5304;DHT22;2674;49.722;10.892;2022-10-22T13:06:36;18.00;99.90
5304;DHT22;2674;49.722;10.892;2022-10-22T13:09:11;18.00;99.90
5304;DHT22;2674;49.722;10.892;2022-10-22T13:11:48;18.10;99.90
5304;DHT22;2674;49.722;10.892;2022-10-22T13:14:19;18.10;99.90
5304;DHT22;2674;49.722;10.892;2022-10-22T13:17:35;18.20;99.90
5304;DHT22;2674;49.722;10.892;2022-10-22T13:22:51;18.20;99.90
5304;DHT22;2674;49.722;10.892;2022-10-22T13:25:20;18.20;99.90
5304;DHT22;2674;49.722;10.892;2022-10-22T13:28:19;18.30;99.90
5304;DHT22;2674;49.722;10.892;2022-10-22T13:33:37;18.50;99.90
5304;DHT22;2674;49.722;10.892;2022-10-22T13:36:05;18.50;99.90
5304;DHT22;2674;49.722;10.892;2022-10-22T13:38:31;18.50;99.90
5304;DHT22;2674;49.722;10.892;2022-10-22T13:40:57;18.50;99.90
5304;DHT22;2674;49.722;10.892;2022-10-22T13:43:24;18.40;99.90
5304;DHT22;2674;49.722;10.892;2022-10-22T13:45:57;18.40;99.90
5304;DHT22;2674;49.722;10.892;2022-10-22T13:48:24;18.40;99.90
5304;DHT22;2674;49.722;10.892;2022-10-22T13:50:51;18.50;99.90
5304;DHT22;2674;49.722;10.892;2022-10-22T13:53:20;18.60;99.90
5304;DHT22;2674;49.722;10.892;2022-10-22T13:55:49;18.50;99.90
5304;DHT22;2674;49.722;10.892;2022-10-22T13:58:18;18.50;99.90
5304;DHT22;2674;49.722;10.892;2022-10-22T14:00:56;18.50;99.90
5304;DHT22;2674;49.722;10.892;2022-10-22T14:03:33;18.50;99.90
5304;DHT22;2674;49.722;10.892;2022-10-22T14:06:00;18.50;99.90
5304;DHT22;2674;49.722;10.892;2022-10-22T14:08:26;18.60;99.90
5304;DHT22;2674;49.722;10.892;2022-10-22T14:10:53;18.60;99.90
5304;DHT22;2674;49.722;10.892;2022-10-22T14:13:20;18.60;99.90
5304;DHT22;2674;49.722;10.892;2022-10-22T14:15:49;18.50;99.90
5304;DHT22;2674;49.722;10.892;2022-10-22T14:18:21;18.50;99.90
5304;DHT22;2674;49.722;10.892;2022-10-22T14:20:51;18.50;99.90
5304;DHT22;2674;49.722;10.892;2022-10-22T14:23:20;18.50;99.90
5304;DHT22;2674;49.722;10.892;2022-10-22T14:25:46;18.60;99.90
5304;DHT22;2674;49.722;10.892;2022-10-22T14:28:13;18.60;99.90
5304;DHT22;2674;49.722;10.892;2022-10-22T14:30:40;18.70;99.90
5304;DHT22;2674;49.722;10.892;2022-10-22T14:33:15;18.70;99.90
5304;DHT22;2674;49.722;10.892;2022-10-22T14:35:43;18.70;99.90
5304;DHT22;2674;49.722;10.892;2022-10-22T14:38:09;18.70;99.90
5304;DHT22;2674;49.722;10.892;2022-10-22T14:40:35;18.80;99.90
5304;DHT22;2674;49.722;10.892;2022-10-22T14:43:03;19.00;99.90
5304;DHT22;2674;49.722;10.892;2022-10-22T14:45:29;19.00;99.90
5304;DHT22;2674;49.722;10.892;2022-10-22T14:47:55;19.00;99.90
5304;DHT22;2674;49.722;10.892;2022-10-22T14:50:23;18.90;99.90
5304;DHT22;2674;49.722;10.892;2022-10-22T14:52:49;18.80;99.90
5304;DHT22;2674;49.722;10.892;2022-10-22T14:55:17;18.70;99.90
5304;DHT22;2674;49.722;10.892;2022-10-22T14:57:43;18.50;99.90
5304;DHT22;2674;49.722;10.892;2022-10-22T15:00:12;18.50;99.90
5304;DHT22;2674;49.722;10.892;2022-10-22T15:02:38;18.50;99.90
5304;DHT22;2674;49.722;10.892;2022-10-22T15:05:05;18.60;99.90
5304;DHT22;2674;49.722;10.892;2022-10-22T15:07:31;18.50;99.90
5304;DHT22;2674;49.722;10.892;2022-10-22T15:09:56;18.50;99.90
5304;DHT22;2674;49.722;10.892;2022-10-22T15:12:22;18.40;99.90
5304;DHT22;2674;49.722;10.892;2022-10-22T15:14:49;18.20;99.90
5304;DHT22;2674;49.722;10.892;2022-10-22T15:17:16;18.10;99.90
5304;DHT22;2674;49.722;10.892;2022-10-22T15:19:43;18.00;99.90
5304;DHT22;2674;49.722;10.892;2022-10-22T15:22:10;17.90;99.90
5304;DHT22;2674;49.722;10.892;2022-10-22T15:24:36;17.90;99.90
5304;DHT22;2674;49.722;10.892;2022-10-22T15:27:02;17.80;99.90
5304;DHT22;2674;49.722;10.892;2022-10-22T15:29:29;17.70;99.90
5304;DHT22;2674;49.722;10.892;2022-10-22T15:31:56;17.70;99.90
5304;DHT22;2674;49.722;10.892;2022-10-22T15:34:32;17.60;99.90
5304;DHT22;2674;49.722;10.892;2022-10-22T15:37:00;17.50;99.90
5304;DHT22;2674;49.722;10.892;2022-10-22T15:39:27;17.50;99.90
5304;DHT22;2674;49.722;10.892;2022-10-22T15:41:54;17.40;99.90
5304;DHT22;2674;49.722;10.892;2022-10-22T15:44:25;17.30;99.90
5304;DHT22;2674;49.722;10.892;2022-10-22T15:46:52;17.30;99.90
5304;DHT22;2674;49.722;10.892;2022-10-22T15:49:21;17.20;99.90
5304;DHT22;2674;49.722;10.892;2022-10-22T15:51:47;17.10;99.90
5304;DHT22;2674;49.722;10.892;2022-10-22T15:54:21;17.10;99.90
5304;DHT22;2674;49.722;10.892;2022-10-22T15:56:47;17.00;99.90
5304;DHT22;2674;49.722;10.892;2022-10-22T15:59:15;17.00;99.90
5304;DHT22;2674;49.722;10.892;2022-10-22T16:01:41;16.90;99.90
5304;DHT22;2674;49.722;10.892;2022-10-22T16:04:08;16.90;99.90
5304;DHT22;2674;49.722;10.892;2022-10-22T16:09:10;16.80;99.90
5304;DHT22;2674;49.722;10.892;2022-10-22T16:11:37;16.70;99.90
5304;DHT22;2674;49.722;10.892;2022-10-22T16:14:04;16.70;99.90
5304;DHT22;2674;49.722;10.892;2022-10-22T16:16:33;16.60;99.90
5304;DHT22;2674;49.722;10.892;2022-10-22T16:18:59;16.50;99.90
5304;DHT22;2674;49.722;10.892;2022-10-22T16:21:26;16.40;99.90
5304;DHT22;2674;49.722;10.892;2022-10-22T16:26:18;16.30;99.90
5304;DHT22;2674;49.722;10.892;2022-10-22T16:28:46;16.20;99.90
5304;DHT22;2674;49.722;10.892;2022-10-22T16:31:14;16.10;99.90
5304;DHT22;2674;49.722;10.892;2022-10-22T16:33:41;16.10;99.90
5304;DHT22;2674;49.722;10.892;2022-10-22T16:36:11;16.00;99.90
5304;DHT22;2674;49.722;10.892;2022-10-22T16:38:38;15.90;99.90
5304;DHT22;2674;49.722;10.892;2022-10-22T16:41:15;15.90;99.90
5304;DHT22;2674;49.722;10.892;2022-10-22T16:43:42;15.80;99.90
5304;DHT22;2674;49.722;10.892;2022-10-22T16:46:14;15.70;99.90
5304;DHT22;2674;49.722;10.892;2022-10-22T16:48:47;15.60;99.90
5304;DHT22;2674;49.722;10.892;2022-10-22T16:51:18;15.60;99.90
5304;DHT22;2674;49.722;10.892;2022-10-22T16:53:45;15.50;99.90
5304;DHT22;2674;49.722;10.892;2022-10-22T16:56:12;15.50;99.90
5304;DHT22;2674;49.722;10.892;2022-10-22T16:58:47;15.40;99.90
5304;DHT22;2674;49.722;10.892;2022-10-22T17:01:13;15.40;99.90
5304;DHT22;2674;49.722;10.892;2022-10-22T17:03:39;15.30;99.90
5304;DHT22;2674;49.722;10.892;2022-10-22T17:06:06;15.20;99.90
5304;DHT22;2674;49.722;10.892;2022-10-22T17:08:37;15.20;99.90
5304;DHT22;2674;49.722;10.892;2022-10-22T17:11:07;15.10;99.90
5304;DHT22;2674;49.722;10.892;2022-10-22T17:13:33;15.00;99.90
5304;DHT22;2674;49.722;10.892;2022-10-22T17:16:04;14.90;99.90
5304;DHT22;2674;49.722;10.892;2022-10-22T17:18:30;14.80;99.90
5304;DHT22;2674;49.722;10.892;2022-10-22T17:20:56;14.70;99.90
5304;DHT22;2674;49.722;10.892;2022-10-22T17:23:27;14.60;99.90
5304;DHT22;2674;49.722;10.892;2022-10-22T17:26:07;14.40;99.90
5304;DHT22;2674;49.722;10.892;2022-10-22T17:28:34;14.30;99.90
5304;DHT22;2674;49.722;10.892;2022-10-22T17:33:27;14.10;99.90
5304;DHT22;2674;49.722;10.892;2022-10-22T17:35:53;14.00;99.90
5304;DHT22;2674;49.722;10.892;2022-10-22T17:38:20;14.00;99.90
5304;DHT22;2674;49.722;10.892;2022-10-22T17:40:46;13.90;99.90
5304;DHT22;2674;49.722;10.892;2022-10-22T17:43:12;13.80;99.90
5304;DHT22;2674;49.722;10.892;2022-10-22T17:45:37;13.70;99.90
5304;DHT22;2674;49.722;10.892;2022-10-22T17:48:03;13.70;99.90
5304;DHT22;2674;49.722;10.892;2022-10-22T17:50:29;13.60;99.90
5304;DHT22;2674;49.722;10.892;2022-10-22T17:52:55;13.60;99.90
5304;DHT22;2674;49.722;10.892;2022-10-22T17:55:21;13.50;99.90
5304;DHT22;2674;49.722;10.892;2022-10-22T17:57:47;13.40;99.90